Time;durP1;ratioP1;P1;durP2;ratioP2;P2;SDS_P1;SDS_P2;PMS_P1;PMS_P2;Temp;Humidity;BMP_temperature;BMP_pressure;BME280_temperature;BME280_humidity;BME280_pressure;Samples;Min_cycle;Max_cycle;Signal;HPM_P1;HPM_P2
2022/03/10 00:02:17;;;;;;;28.05;16.95;;;;;;;;;;5054014;28;20532;-73
2022/03/10 00:05:03;;;;;;;31.50;17.60;;;;;;;;;;5042257;28;20043;-72
2022/03/10 00:07:48;;;;;;;31.58;18.45;;;;;;;;;;5053549;28;20032;-73
2022/03/10 00:10:34;;;;;;;38.15;19.95;;;;;;;;;;5056156;28;20039;-73
2022/03/10 00:13:19;;;;;;;37.97;18.27;;;;;;;;;;5052901;28;20053;-75
2022/03/10 00:16:04;;;;;;;29.27;17.45;;;;;;;;;;5054212;28;20075;-73
2022/03/10 00:18:50;;;;;;;32.60;17.98;;;;;;;;;;5052518;28;20349;-62
2022/03/10 00:21:35;;;;;;;32.08;18.50;;;;;;;;;;5047731;28;20075;-64
2022/03/10 00:24:20;;;;;;;30.75;18.15;;;;;;;;;;5048553;28;20102;-64
2022/03/10 00:27:05;;;;;;;33.30;18.48;;;;;;;;;;5053310;28;20040;-61
2022/03/10 00:29:50;;;;;;;31.38;17.13;;;;;;;;;;5053186;28;20479;-63
2022/03/10 00:32:43;;;;;;;32.63;18.98;;;;;;;;;;5054182;28;20038;-64
2022/03/10 00:35:29;;;;;;;33.00;19.35;;;;;;;;;;5048329;28;20020;-61
2022/03/10 00:38:14;;;;;;;35.83;20.27;;;;;;;;;;5053506;28;20037;-65
2022/03/10 00:40:59;;;;;;;33.92;19.67;;;;;;;;;;5053398;28;20075;-69
2022/03/10 00:43:46;;;;;;;35.08;18.25;;;;;;;;;;5062028;28;20074;-70
2022/03/10 00:46:31;;;;;;;33.38;18.70;;;;;;;;;;5039136;28;20036;-69
2022/03/10 00:49:16;;;;;;;31.95;19.05;;;;;;;;;;5053621;28;20036;-70
2022/03/10 00:52:01;;;;;;;38.20;21.33;;;;;;;;;;5036991;28;20054;-69
2022/03/10 00:54:47;;;;;;;36.33;20.52;;;;;;;;;;5038604;28;20028;-67
2022/03/10 00:57:32;;;;;;;36.83;19.77;;;;;;;;;;5049153;28;20487;-74
2022/03/10 01:00:18;;;;;;;33.30;19.48;;;;;;;;;;5052809;28;20040;-73
2022/03/10 01:03:04;;;;;;;33.78;18.60;;;;;;;;;;5040567;28;20025;-72
2022/03/10 01:05:50;;;;;;;33.85;18.90;;;;;;;;;;5053070;28;20028;-73
2022/03/10 01:08:36;;;;;;;35.40;20.33;;;;;;;;;;5045958;28;20035;-72
2022/03/10 01:11:21;;;;;;;33.53;18.98;;;;;;;;;;5033946;28;20040;-72
2022/03/10 01:14:07;;;;;;;33.80;19.83;;;;;;;;;;5052693;28;20048;-79
2022/03/10 01:16:52;;;;;;;36.10;21.17;;;;;;;;;;5045944;28;20036;-68
2022/03/10 01:19:37;;;;;;;33.03;18.52;;;;;;;;;;5053463;28;20492;-68
2022/03/10 01:22:22;;;;;;;34.00;19.05;;;;;;;;;;5051749;28;20041;-69
2022/03/10 01:25:08;;;;;;;34.92;18.17;;;;;;;;;;5053471;28;20036;-68
2022/03/10 01:27:53;;;;;;;32.33;19.67;;;;;;;;;;5052272;28;20021;-68
2022/03/10 01:30:38;;;;;;;33.58;20.50;;;;;;;;;;5050435;28;20199;-70
2022/03/10 01:33:24;;;;;;;34.25;19.10;;;;;;;;;;5052438;28;20029;-62
2022/03/10 01:36:09;;;;;;;37.80;19.20;;;;;;;;;;5052825;28;20495;-68
2022/03/10 01:38:54;;;;;;;33.08;18.38;;;;;;;;;;5053187;28;20029;-65
2022/03/10 01:41:39;;;;;;;31.92;18.73;;;;;;;;;;5052110;28;20042;-66
2022/03/10 01:44:25;;;;;;;31.85;19.95;;;;;;;;;;5051628;28;20534;-65
2022/03/10 01:47:10;;;;;;;37.25;20.38;;;;;;;;;;5051256;28;20025;-67
2022/03/10 01:49:55;;;;;;;31.60;19.40;;;;;;;;;;5055748;28;20468;-73
2022/03/10 01:52:42;;;;;;;34.88;19.42;;;;;;;;;;5051963;28;20048;-63
2022/03/10 01:55:27;;;;;;;32.05;17.25;;;;;;;;;;5053158;28;20032;-64
2022/03/10 01:58:13;;;;;;;33.80;18.13;;;;;;;;;;5050436;28;20040;-64
2022/03/10 02:00:58;;;;;;;36.15;19.42;;;;;;;;;;5052715;28;20025;-64
2022/03/10 02:03:43;;;;;;;33.92;18.95;;;;;;;;;;5029253;28;20028;-63
2022/03/10 02:06:29;;;;;;;37.40;19.63;;;;;;;;;;5052916;28;20072;-66
2022/03/10 02:12:18;;;;;;;31.65;18.35;;;;;;;;;;5052579;28;20036;-63
2022/03/10 02:18:21;;;;;;;31.92;17.65;;;;;;;;;;5058226;28;20350;-61
2022/03/10 02:21:06;;;;;;;32.08;19.58;;;;;;;;;;5058399;28;20060;-65
2022/03/10 02:23:52;;;;;;;32.17;19.15;;;;;;;;;;5051866;28;20035;-63
2022/03/10 02:26:37;;;;;;;32.45;18.35;;;;;;;;;;5052358;28;20475;-64
2022/03/10 02:29:22;;;;;;;31.10;17.40;;;;;;;;;;5041945;28;20032;-64
2022/03/10 02:32:08;;;;;;;35.83;18.23;;;;;;;;;;5052132;28;20131;-77
2022/03/10 02:34:53;;;;;;;30.05;18.45;;;;;;;;;;5050675;28;20032;-76
2022/03/10 02:37:38;;;;;;;33.17;18.50;;;;;;;;;;5052213;28;20032;-77
2022/03/10 02:40:24;;;;;;;32.40;17.92;;;;;;;;;;5051068;28;20761;-77
2022/03/10 02:43:10;;;;;;;31.10;18.85;;;;;;;;;;5035918;28;20517;-78
2022/03/10 02:45:55;;;;;;;31.73;18.92;;;;;;;;;;5050776;28;20037;-64
2022/03/10 02:48:40;;;;;;;28.85;17.05;;;;;;;;;;5052443;28;20077;-64
2022/03/10 02:51:26;;;;;;;31.48;17.52;;;;;;;;;;5057325;28;20164;-65
2022/03/10 02:54:11;;;;;;;29.35;17.85;;;;;;;;;;5053200;28;20029;-66
2022/03/10 02:56:57;;;;;;;30.13;18.58;;;;;;;;;;5051345;28;20044;-67
2022/03/10 02:59:42;;;;;;;33.42;17.73;;;;;;;;;;5046711;28;20067;-63
2022/03/10 03:02:27;;;;;;;34.67;20.60;;;;;;;;;;5051860;28;20020;-63
2022/03/10 03:05:13;;;;;;;31.10;18.45;;;;;;;;;;5049408;28;20029;-68
2022/03/10 03:07:58;;;;;;;30.33;16.65;;;;;;;;;;5035244;28;20176;-65
2022/03/10 03:10:43;;;;;;;26.75;16.25;;;;;;;;;;5040436;28;20403;-68
2022/03/10 03:13:29;;;;;;;33.50;17.80;;;;;;;;;;5037593;28;20032;-69
2022/03/10 03:16:14;;;;;;;29.33;16.60;;;;;;;;;;5054262;28;20071;-68
2022/03/10 03:18:59;;;;;;;30.42;17.92;;;;;;;;;;5055798;28;20391;-67
2022/03/10 03:21:45;;;;;;;27.98;16.35;;;;;;;;;;5055173;28;20119;-65
2022/03/10 03:24:30;;;;;;;29.17;16.40;;;;;;;;;;5063865;28;20032;-63
2022/03/10 03:27:15;;;;;;;28.90;17.15;;;;;;;;;;5040633;28;20032;-62
2022/03/10 03:30:02;;;;;;;30.15;17.67;;;;;;;;;;5055657;28;20036;-61
2022/03/10 03:32:47;;;;;;;28.45;16.15;;;;;;;;;;5041315;28;20028;-65
2022/03/10 03:35:32;;;;;;;27.75;17.20;;;;;;;;;;5055908;28;20035;-64
2022/03/10 03:38:18;;;;;;;27.15;16.33;;;;;;;;;;5053100;28;20068;-62
2022/03/10 03:41:03;;;;;;;27.80;16.55;;;;;;;;;;5054873;28;20028;-67
2022/03/10 03:43:48;;;;;;;29.73;16.25;;;;;;;;;;5055076;28;20025;-64
2022/03/10 03:46:34;;;;;;;29.60;16.70;;;;;;;;;;5054899;28;20602;-63
2022/03/10 03:49:19;;;;;;;28.45;17.65;;;;;;;;;;5046133;28;20145;-63
2022/03/10 03:52:04;;;;;;;29.02;16.70;;;;;;;;;;5054072;28;20606;-64
2022/03/10 03:54:50;;;;;;;29.13;16.23;;;;;;;;;;5058077;28;20050;-63
2022/03/10 03:57:35;;;;;;;31.30;17.38;;;;;;;;;;5057427;28;20380;-64
2022/03/10 04:00:20;;;;;;;29.90;16.20;;;;;;;;;;5053120;28;20050;-63
2022/03/10 04:03:07;;;;;;;28.83;16.73;;;;;;;;;;5054236;28;20128;-69
2022/03/10 04:05:52;;;;;;;26.17;15.88;;;;;;;;;;5040989;28;20047;-68
2022/03/10 04:08:38;;;;;;;30.35;16.77;;;;;;;;;;5052959;28;20072;-68
2022/03/10 04:11:23;;;;;;;29.70;16.83;;;;;;;;;;5055023;28;20028;-69
2022/03/10 04:14:11;;;;;;;31.20;16.98;;;;;;;;;;5050113;28;20028;-68
2022/03/10 04:16:56;;;;;;;26.63;15.73;;;;;;;;;;5034880;28;20481;-64
2022/03/10 04:19:42;;;;;;;31.60;18.35;;;;;;;;;;5052800;28;20108;-64
2022/03/10 04:22:27;;;;;;;28.67;17.33;;;;;;;;;;5055002;28;20040;-67
2022/03/10 04:25:12;;;;;;;28.17;16.58;;;;;;;;;;5042558;28;20529;-67
2022/03/10 04:27:57;;;;;;;30.33;16.42;;;;;;;;;;5047995;28;20311;-65
2022/03/10 04:30:44;;;;;;;32.42;16.08;;;;;;;;;;5052595;28;20039;-63
2022/03/10 04:33:29;;;;;;;26.50;15.60;;;;;;;;;;5053295;28;20036;-64
2022/03/10 04:36:14;;;;;;;27.92;16.23;;;;;;;;;;5037696;28;20343;-64
2022/03/10 04:39:00;;;;;;;26.50;15.02;;;;;;;;;;5034563;28;20056;-65
2022/03/10 04:41:45;;;;;;;29.00;15.15;;;;;;;;;;5054554;28;20471;-65
2022/03/10 04:44:31;;;;;;;25.80;15.65;;;;;;;;;;5053474;28;20138;-63
2022/03/10 04:47:16;;;;;;;30.42;16.88;;;;;;;;;;5053527;28;20035;-65
2022/03/10 04:50:02;;;;;;;29.75;16.48;;;;;;;;;;5050618;28;20060;-65
2022/03/10 04:52:48;;;;;;;24.58;15.23;;;;;;;;;;5054253;28;20047;-63
2022/03/10 04:55:33;;;;;;;26.58;15.18;;;;;;;;;;5050674;28;20123;-67
2022/03/10 04:58:18;;;;;;;27.27;16.17;;;;;;;;;;5053227;28;20437;-62
2022/03/10 05:01:04;;;;;;;26.02;14.63;;;;;;;;;;5058769;28;20039;-62
2022/03/10 05:03:50;;;;;;;38.08;16.15;;;;;;;;;;5054045;28;20437;-63
2022/03/10 05:06:35;;;;;;;25.38;15.80;;;;;;;;;;5045622;28;20110;-63
2022/03/10 05:09:21;;;;;;;25.17;14.10;;;;;;;;;;5050471;28;20041;-63
2022/03/10 05:12:06;;;;;;;26.65;15.38;;;;;;;;;;5054399;28;20032;-69
2022/03/10 05:14:52;;;;;;;32.33;15.77;;;;;;;;;;5051425;28;20063;-78
2022/03/10 05:17:37;;;;;;;27.67;15.80;;;;;;;;;;5054118;28;20199;-67
2022/03/10 05:20:24;;;;;;;27.25;15.75;;;;;;;;;;5050589;28;20464;-67
2022/03/10 05:23:09;;;;;;;28.20;15.93;;;;;;;;;;5053462;28;20105;-69
2022/03/10 05:25:54;;;;;;;28.52;15.43;;;;;;;;;;5037950;28;20032;-69
2022/03/10 05:28:39;;;;;;;30.85;15.15;;;;;;;;;;5047935;28;20468;-68
2022/03/10 05:31:25;;;;;;;29.38;15.10;;;;;;;;;;5057517;28;20028;-73
2022/03/10 05:34:10;;;;;;;28.35;16.73;;;;;;;;;;5055382;28;20376;-78
2022/03/10 05:36:55;;;;;;;28.00;14.95;;;;;;;;;;5059304;28;20024;-77
2022/03/10 05:39:41;;;;;;;32.47;16.55;;;;;;;;;;5053739;28;20062;-78
2022/03/10 05:42:26;;;;;;;24.67;14.77;;;;;;;;;;5052244;28;20655;-77
2022/03/10 05:45:12;;;;;;;31.67;17.20;;;;;;;;;;5047615;28;20108;-78
2022/03/10 05:47:57;;;;;;;29.85;16.50;;;;;;;;;;5052384;28;20040;-77
2022/03/10 05:50:43;;;;;;;26.45;16.52;;;;;;;;;;5050214;28;20531;-68
2022/03/10 05:53:29;;;;;;;32.20;16.10;;;;;;;;;;5051997;28;20040;-64
2022/03/10 05:56:14;;;;;;;27.48;15.10;;;;;;;;;;5050564;28;20036;-64
2022/03/10 05:58:59;;;;;;;28.88;16.42;;;;;;;;;;5051331;28;20032;-65
2022/03/10 06:01:44;;;;;;;34.22;18.67;;;;;;;;;;5051775;28;20306;-65
2022/03/10 06:04:30;;;;;;;29.25;16.58;;;;;;;;;;5059992;28;20215;-66
2022/03/10 06:07:16;;;;;;;30.35;14.80;;;;;;;;;;5050852;28;20051;-75
2022/03/10 06:10:03;;;;;;;36.63;17.35;;;;;;;;;;5051994;28;20368;-73
2022/03/10 06:12:48;;;;;;;35.55;17.98;;;;;;;;;;5050626;28;20032;-71
2022/03/10 06:15:34;;;;;;;35.25;17.80;;;;;;;;;;5050810;28;20032;-74
2022/03/10 06:18:19;;;;;;;29.45;17.45;;;;;;;;;;5051066;28;20055;-72
2022/03/10 06:21:04;;;;;;;34.83;18.02;;;;;;;;;;5050167;28;20081;-71
2022/03/10 06:23:49;;;;;;;32.10;17.23;;;;;;;;;;5050829;28;20119;-72
2022/03/10 06:26:36;;;;;;;32.50;16.27;;;;;;;;;;5050399;28;20028;-63
2022/03/10 06:29:22;;;;;;;30.33;17.05;;;;;;;;;;5047815;28;20036;-67
2022/03/10 06:32:07;;;;;;;42.00;18.45;;;;;;;;;;5052170;28;20094;-64
2022/03/10 06:34:55;;;;;;;28.83;17.10;;;;;;;;;;5051907;28;20024;-63
2022/03/10 06:37:40;;;;;;;34.22;18.08;;;;;;;;;;5050576;28;20033;-64
2022/03/10 06:40:26;;;;;;;35.40;17.92;;;;;;;;;;5051580;28;20056;-64
2022/03/10 06:43:11;;;;;;;35.38;18.63;;;;;;;;;;5032792;28;20104;-66
2022/03/10 06:45:56;;;;;;;36.60;18.38;;;;;;;;;;5051746;28;20463;-76
2022/03/10 06:48:41;;;;;;;29.92;17.95;;;;;;;;;;5049503;28;20075;-63
2022/03/10 06:51:27;;;;;;;31.70;18.95;;;;;;;;;;5052485;28;20048;-63
2022/03/10 06:54:12;;;;;;;36.60;19.02;;;;;;;;;;5042866;28;20032;-65
2022/03/10 06:56:58;;;;;;;39.55;19.20;;;;;;;;;;5049625;28;20483;-61
2022/03/10 06:59:43;;;;;;;28.20;16.35;;;;;;;;;;5060388;28;20036;-64
2022/03/10 07:02:28;;;;;;;32.28;18.73;;;;;;;;;;5031123;28;20073;-70
2022/03/10 07:05:14;;;;;;;35.25;19.33;;;;;;;;;;5054710;28;20039;-74
2022/03/10 07:07:59;;;;;;;33.53;19.98;;;;;;;;;;5070112;28;20021;-76
2022/03/10 07:10:45;;;;;;;35.60;18.23;;;;;;;;;;5051527;28;20097;-73
2022/03/10 07:13:30;;;;;;;34.42;18.65;;;;;;;;;;5038389;28;20452;-73
2022/03/10 07:16:15;;;;;;;29.90;18.58;;;;;;;;;;5054134;28;20108;-74
2022/03/10 07:19:00;;;;;;;38.78;21.08;;;;;;;;;;5052171;28;20024;-74
2022/03/10 07:21:46;;;;;;;37.30;20.23;;;;;;;;;;5054944;28;20037;-71
2022/03/10 07:24:31;;;;;;;39.78;21.55;;;;;;;;;;5038348;28;20467;-68
2022/03/10 07:27:16;;;;;;;39.35;21.27;;;;;;;;;;5034647;28;20068;-67
2022/03/10 07:30:02;;;;;;;36.58;21.38;;;;;;;;;;5051776;28;20028;-66
2022/03/10 07:32:47;;;;;;;35.92;20.38;;;;;;;;;;5052187;28;20044;-70
2022/03/10 07:35:33;;;;;;;38.70;21.25;;;;;;;;;;5041777;28;20032;-66
2022/03/10 07:38:18;;;;;;;41.63;19.88;;;;;;;;;;5046191;28;20025;-69
2022/03/10 07:41:03;;;;;;;34.35;19.73;;;;;;;;;;5058059;28;20041;-66
2022/03/10 07:43:49;;;;;;;37.60;20.00;;;;;;;;;;5032187;28;20032;-67
2022/03/10 07:46:34;;;;;;;38.03;20.77;;;;;;;;;;5053685;28;20460;-66
2022/03/10 07:49:19;;;;;;;35.20;20.70;;;;;;;;;;5057738;28;20505;-65
2022/03/10 07:52:06;;;;;;;37.35;19.83;;;;;;;;;;5068091;28;20024;-65
2022/03/10 07:54:52;;;;;;;39.10;21.27;;;;;;;;;;5066050;28;20483;-64
2022/03/10 07:57:37;;;;;;;36.53;20.13;;;;;;;;;;5045775;28;20135;-72
2022/03/10 08:00:22;;;;;;;33.22;19.27;;;;;;;;;;5047306;28;20488;-67
2022/03/10 08:03:07;;;;;;;30.65;19.50;;;;;;;;;;5054624;28;20086;-71
2022/03/10 08:05:53;;;;;;;35.42;18.98;;;;;;;;;;5055411;28;20281;-70
2022/03/10 08:08:38;;;;;;;38.60;18.05;;;;;;;;;;5036251;28;20048;-70
2022/03/10 08:11:24;;;;;;;28.73;18.00;;;;;;;;;;5058327;28;20029;-71
2022/03/10 08:14:10;;;;;;;31.30;18.35;;;;;;;;;;5037788;28;20423;-71
2022/03/10 08:16:55;;;;;;;28.95;16.65;;;;;;;;;;5049027;28;20046;-66
2022/03/10 08:19:40;;;;;;;33.60;21.05;;;;;;;;;;5072257;28;20027;-66
2022/03/10 08:22:26;;;;;;;29.67;19.15;;;;;;;;;;5074513;28;20034;-67
2022/03/10 08:25:12;;;;;;;28.23;18.27;;;;;;;;;;5056030;28;20446;-67
2022/03/10 08:27:57;;;;;;;33.95;19.80;;;;;;;;;;5054338;28;20047;-66
2022/03/10 08:30:43;;;;;;;32.10;19.45;;;;;;;;;;5069117;28;20033;-69
2022/03/10 08:33:28;;;;;;;27.55;18.45;;;;;;;;;;5054526;28;20507;-66
2022/03/10 08:36:13;;;;;;;32.03;19.73;;;;;;;;;;5055012;28;20032;-66
2022/03/10 08:38:59;;;;;;;25.38;16.52;;;;;;;;;;5053770;28;20524;-62
2022/03/10 08:41:44;;;;;;;31.23;18.10;;;;;;;;;;5054813;28;20497;-63
2022/03/10 08:44:29;;;;;;;29.17;18.67;;;;;;;;;;5062300;28;20028;-63
2022/03/10 08:47:15;;;;;;;27.95;17.92;;;;;;;;;;5055015;28;20036;-62
2022/03/10 08:50:00;;;;;;;22.67;15.90;;;;;;;;;;5053375;28;20664;-64
2022/03/10 08:52:45;;;;;;;28.02;17.80;;;;;;;;;;5055168;28;20438;-71
2022/03/10 08:55:31;;;;;;;27.50;17.83;;;;;;;;;;5044601;28;20060;-68
2022/03/10 08:58:16;;;;;;;31.35;17.73;;;;;;;;;;5034557;28;20036;-71
2022/03/10 09:01:02;;;;;;;25.92;16.70;;;;;;;;;;5048679;28;20637;-71
2022/03/10 09:03:47;;;;;;;26.77;15.98;;;;;;;;;;5053369;28;20083;-73
2022/03/10 09:06:32;;;;;;;23.38;15.85;;;;;;;;;;5054095;28;20463;-71
2022/03/10 09:09:18;;;;;;;23.17;16.02;;;;;;;;;;5053317;28;20128;-71
2022/03/10 09:12:04;;;;;;;23.77;16.38;;;;;;;;;;5036985;28;20101;-66
2022/03/10 09:14:49;;;;;;;23.88;15.55;;;;;;;;;;5041953;28;20255;-75
2022/03/10 09:17:35;;;;;;;25.58;15.80;;;;;;;;;;5057549;28;20028;-75
2022/03/10 09:20:22;;;;;;;26.88;18.00;;;;;;;;;;5051920;28;20358;-76
2022/03/10 09:23:07;;;;;;;29.17;16.50;;;;;;;;;;5059315;28;20068;-76
2022/03/10 09:25:53;;;;;;;23.23;15.88;;;;;;;;;;5052518;28;20372;-75
2022/03/10 09:28:38;;;;;;;23.52;15.15;;;;;;;;;;5055069;28;20032;-74
2022/03/10 09:31:25;;;;;;;24.55;14.38;;;;;;;;;;5053089;28;20471;-75
2022/03/10 09:34:10;;;;;;;23.17;14.73;;;;;;;;;;5058048;28;20024;-71
2022/03/10 09:36:56;;;;;;;20.15;14.23;;;;;;;;;;5054757;28;20446;-71
2022/03/10 09:39:41;;;;;;;22.05;13.73;;;;;;;;;;5056130;28;20021;-71
2022/03/10 09:42:28;;;;;;;22.98;13.38;;;;;;;;;;5034007;28;20416;-72
2022/03/10 09:45:14;;;;;;;19.67;12.98;;;;;;;;;;5043671;28;20121;-71
2022/03/10 09:48:00;;;;;;;19.77;12.52;;;;;;;;;;5066981;28;20012;-65
2022/03/10 09:50:46;;;;;;;13.65;9.20;;;;;;;;;;5062731;28;20387;-66
2022/03/10 09:53:34;;;;;;;12.82;9.10;;;;;;;;;;5070501;28;20040;-76
2022/03/10 09:56:20;;;;;;;11.60;7.55;;;;;;;;;;5040329;28;20024;-77
2022/03/10 09:59:09;;;;;;;13.52;7.95;;;;;;;;;;5038566;28;20522;-76
2022/03/10 10:01:57;;;;;;;11.80;8.15;;;;;;;;;;5054418;28;20028;-76
2022/03/10 10:04:43;;;;;;;15.57;7.95;;;;;;;;;;5068167;28;20157;-77
2022/03/10 10:07:29;;;;;;;12.10;8.40;;;;;;;;;;5058821;28;20497;-64
2022/03/10 10:10:25;;;;;;;11.25;7.13;;;;;;;;;;5047222;28;20185;-77
2022/03/10 10:13:39;;;;;;;11.15;7.00;;;;;;;;;;5051736;28;20029;-76
2022/03/10 10:16:25;;;;;;;10.65;7.25;;;;;;;;;;5053050;28;20045;-78
2022/03/10 10:19:16;;;;;;;11.27;6.80;;;;;;;;;;5056299;28;20315;-77
2022/03/10 10:22:14;;;;;;;11.00;6.80;;;;;;;;;;5055034;28;20138;-78
2022/03/10 10:25:02;;;;;;;8.88;6.32;;;;;;;;;;5035755;28;20383;-67
2022/03/10 10:27:48;;;;;;;10.70;8.60;;;;;;;;;;5051817;28;20471;-72
2022/03/10 10:30:33;;;;;;;8.38;6.88;;;;;;;;;;5032810;28;20365;-64
2022/03/10 10:33:19;;;;;;;9.30;6.93;;;;;;;;;;5050608;28;20028;-63
2022/03/10 10:36:13;;;;;;;7.25;5.47;;;;;;;;;;5056684;28;20097;-66
2022/03/10 10:39:10;;;;;;;8.73;6.38;;;;;;;;;;5042548;28;20048;-66
2022/03/10 10:41:56;;;;;;;9.38;6.85;;;;;;;;;;5048533;28;20438;-64
2022/03/10 10:44:41;;;;;;;7.90;5.70;;;;;;;;;;5068468;28;20029;-62
2022/03/10 10:47:27;;;;;;;10.10;6.18;;;;;;;;;;5038974;28;20127;-65
2022/03/10 10:50:13;;;;;;;9.93;6.88;;;;;;;;;;5053706;28;20072;-66
2022/03/10 10:52:58;;;;;;;15.35;5.85;;;;;;;;;;5060542;28;20072;-68
2022/03/10 10:55:45;;;;;;;9.00;5.68;;;;;;;;;;5065673;28;20032;-66
2022/03/10 10:58:30;;;;;;;10.60;5.85;;;;;;;;;;5051026;28;20032;-65
2022/03/10 11:01:28;;;;;;;7.70;5.82;;;;;;;;;;5053867;28;20362;-66
2022/03/10 11:04:13;;;;;;;11.18;6.88;;;;;;;;;;5054384;28;20103;-66
2022/03/10 11:06:58;;;;;;;10.10;6.18;;;;;;;;;;5042253;28;20111;-69
2022/03/10 11:09:44;;;;;;;9.88;5.82;;;;;;;;;;5055503;28;20035;-70
2022/03/10 11:12:30;;;;;;;10.60;6.65;;;;;;;;;;5070878;28;20523;-71
2022/03/10 11:15:15;;;;;;;9.43;6.78;;;;;;;;;;5051302;28;20492;-73
2022/03/10 11:18:01;;;;;;;10.98;6.68;;;;;;;;;;5058302;28;20036;-73
2022/03/10 11:20:49;;;;;;;7.95;5.47;;;;;;;;;;5052400;28;20032;-67
2022/03/10 11:23:59;;;;;;;8.68;4.53;;;;;;;;;;5043717;28;20103;-76
2022/03/10 11:26:45;;;;;;;7.65;4.45;;;;;;;;;;5064054;28;20054;-75
2022/03/10 11:29:32;;;;;;;8.77;4.95;;;;;;;;;;5056975;28;20131;-74
2022/03/10 11:32:17;;;;;;;9.95;4.78;;;;;;;;;;5043378;28;20058;-75
2022/03/10 11:35:02;;;;;;;6.95;4.70;;;;;;;;;;5052012;28;20170;-76
2022/03/10 11:37:50;;;;;;;5.97;3.92;;;;;;;;;;5055759;28;20028;-75
2022/03/10 11:40:42;;;;;;;7.57;4.85;;;;;;;;;;5054944;28;20047;-67
2022/03/10 11:43:34;;;;;;;8.82;4.28;;;;;;;;;;5026879;28;20385;-77
2022/03/10 11:46:24;;;;;;;6.13;4.15;;;;;;;;;;5049045;28;20081;-75
2022/03/10 11:49:15;;;;;;;6.75;4.45;;;;;;;;;;5035890;28;20431;-75
2022/03/10 11:52:04;;;;;;;6.07;4.43;;;;;;;;;;5052526;28;20502;-78
2022/03/10 11:55:05;;;;;;;6.30;3.90;;;;;;;;;;5057845;28;20109;-78
2022/03/10 11:58:04;;;;;;;5.38;3.20;;;;;;;;;;5055529;28;20033;-75
2022/03/10 12:00:51;;;;;;;5.25;3.38;;;;;;;;;;5053981;28;20052;-68
2022/03/10 12:03:37;;;;;;;6.18;3.95;;;;;;;;;;5055058;28;20032;-69
2022/03/10 12:06:29;;;;;;;7.63;3.88;;;;;;;;;;5052827;28;20032;-66
2022/03/10 12:09:24;;;;;;;5.10;3.20;;;;;;;;;;5053569;28;20032;-67
2022/03/10 12:12:25;;;;;;;5.07;3.63;;;;;;;;;;5069839;28;20038;-67
2022/03/10 12:15:23;;;;;;;6.38;3.60;;;;;;;;;;5073729;28;20030;-65
2022/03/10 12:18:11;;;;;;;6.28;4.25;;;;;;;;;;5054929;28;20501;-70
2022/03/10 12:20:58;;;;;;;7.07;4.15;;;;;;;;;;5055321;28;20044;-61
2022/03/10 12:23:50;;;;;;;6.43;3.97;;;;;;;;;;5059477;28;20041;-61
2022/03/10 12:26:40;;;;;;;6.78;4.00;;;;;;;;;;5069261;28;20127;-61
2022/03/10 12:29:26;;;;;;;8.30;3.22;;;;;;;;;;5061420;28;20033;-63
2022/03/10 12:32:11;;;;;;;7.65;4.05;;;;;;;;;;5051115;28;20456;-60
2022/03/10 12:34:57;;;;;;;9.65;3.60;;;;;;;;;;5056232;28;20314;-64
2022/03/10 12:37:47;;;;;;;9.13;4.32;;;;;;;;;;5059143;28;20043;-64
2022/03/10 12:40:33;;;;;;;5.80;3.28;;;;;;;;;;5069057;28;20039;-65
2022/03/10 12:43:24;;;;;;;4.20;3.35;;;;;;;;;;5054798;28;20033;-64
2022/03/10 12:46:10;;;;;;;5.50;3.40;;;;;;;;;;5053950;28;20119;-65
2022/03/10 12:48:58;;;;;;;8.95;4.32;;;;;;;;;;5067351;28;20124;-65
2022/03/10 12:51:43;;;;;;;11.70;3.75;;;;;;;;;;5045550;28;20097;-63
2022/03/10 12:54:30;;;;;;;5.40;3.38;;;;;;;;;;5054757;28;20120;-72
2022/03/10 12:57:15;;;;;;;8.18;4.53;;;;;;;;;;5041536;28;20029;-65
2022/03/10 13:00:01;;;;;;;6.95;4.50;;;;;;;;;;5045247;28;20048;-63
2022/03/10 13:02:46;;;;;;;10.25;4.97;;;;;;;;;;5053235;28;20123;-68
2022/03/10 13:05:31;;;;;;;6.95;4.55;;;;;;;;;;5054327;28;20020;-64
2022/03/10 13:08:18;;;;;;;7.68;4.70;;;;;;;;;;5050905;28;20376;-65
2022/03/10 13:11:03;;;;;;;7.60;4.68;;;;;;;;;;5054566;28;20089;-65
2022/03/10 13:14:06;;;;;;;6.18;4.50;;;;;;;;;;5053203;28;20078;-64
2022/03/10 13:16:51;;;;;;;7.32;4.00;;;;;;;;;;5054237;28;20059;-62
2022/03/10 13:19:37;;;;;;;7.43;4.15;;;;;;;;;;5052926;28;20052;-61
2022/03/10 13:22:22;;;;;;;9.50;4.60;;;;;;;;;;5068382;28;20039;-62
2022/03/10 13:25:08;;;;;;;8.88;4.88;;;;;;;;;;5053269;28;20051;-61
2022/03/10 13:27:58;;;;;;;7.55;4.53;;;;;;;;;;5053819;28;20039;-61
2022/03/10 13:30:44;;;;;;;7.95;4.97;;;;;;;;;;5054206;28;20109;-66
2022/03/10 13:33:29;;;;;;;9.30;4.88;;;;;;;;;;5045055;28;20532;-65
2022/03/10 13:36:15;;;;;;;11.85;5.28;;;;;;;;;;5053498;28;20036;-66
2022/03/10 13:39:00;;;;;;;8.30;4.80;;;;;;;;;;5053760;28;20047;-65
2022/03/10 13:41:45;;;;;;;7.55;4.68;;;;;;;;;;5044795;28;20059;-65
2022/03/10 13:44:31;;;;;;;7.03;5.05;;;;;;;;;;5047291;28;20066;-65
2022/03/10 13:47:18;;;;;;;8.25;5.05;;;;;;;;;;5053630;28;20410;-66
2022/03/10 13:50:09;;;;;;;8.25;5.13;;;;;;;;;;5042484;28;20071;-65
2022/03/10 13:52:55;;;;;;;8.98;4.88;;;;;;;;;;5053267;28;20032;-67
2022/03/10 13:55:41;;;;;;;10.48;4.95;;;;;;;;;;5049366;28;20486;-65
2022/03/10 13:58:26;;;;;;;8.77;4.90;;;;;;;;;;5055251;28;20475;-66
2022/03/10 14:01:11;;;;;;;10.38;5.22;;;;;;;;;;5047736;28;20039;-65
2022/03/10 14:03:56;;;;;;;7.78;5.70;;;;;;;;;;5072924;28;20021;-65
2022/03/10 14:06:46;;;;;;;8.82;4.88;;;;;;;;;;5065791;28;20066;-60
2022/03/10 14:09:31;;;;;;;;;;;;;;;;;;5053640;28;20082;-60
2022/03/10 14:12:22;;;;;;;9.68;5.72;;;;;;;;;;5052158;28;20325;-63
2022/03/10 14:15:08;;;;;;;9.77;5.22;;;;;;;;;;5052959;28;20498;-63
2022/03/10 14:17:55;;;;;;;7.78;5.22;;;;;;;;;;5033565;28;20037;-61
2022/03/10 14:20:45;;;;;;;8.25;4.97;;;;;;;;;;5039983;28;20116;-61
2022/03/10 14:23:30;;;;;;;10.25;4.72;;;;;;;;;;5060985;28;20069;-62
2022/03/10 14:26:17;;;;;;;9.20;4.80;;;;;;;;;;5047380;28;20040;-77
2022/03/10 14:29:03;;;;;;;8.77;5.20;;;;;;;;;;5052560;28;20035;-65
2022/03/10 14:31:48;;;;;;;8.20;4.85;;;;;;;;;;5050633;28;20040;-66
2022/03/10 14:34:34;;;;;;;8.40;5.15;;;;;;;;;;5044513;28;20033;-64
2022/03/10 14:37:20;;;;;;;9.23;4.85;;;;;;;;;;5054192;28;20490;-65
2022/03/10 14:40:06;;;;;;;8.25;5.28;;;;;;;;;;5059084;28;20035;-65
2022/03/10 14:42:51;;;;;;;10.48;5.07;;;;;;;;;;5055241;28;20056;-65
2022/03/10 14:45:39;;;;;;;15.02;4.88;;;;;;;;;;5039522;28;20111;-70
2022/03/10 14:48:25;;;;;;;7.20;4.28;;;;;;;;;;5046616;28;20113;-61
2022/03/10 14:51:11;;;;;;;6.47;3.95;;;;;;;;;;5052046;28;20521;-60
2022/03/10 14:53:56;;;;;;;10.25;5.30;;;;;;;;;;5050314;28;20045;-65
2022/03/10 14:56:44;;;;;;;9.70;4.22;;;;;;;;;;5052124;28;20035;-62
2022/03/10 14:59:30;;;;;;;9.55;4.47;;;;;;;;;;5051847;28;20115;-62
2022/03/10 15:02:15;;;;;;;7.25;4.03;;;;;;;;;;5072412;28;20150;-71
2022/03/10 15:05:00;;;;;;;6.80;3.75;;;;;;;;;;5018734;28;20033;-70
2022/03/10 15:07:45;;;;;;;6.78;4.40;;;;;;;;;;5054440;28;20295;-65
2022/03/10 15:10:31;;;;;;;10.27;4.10;;;;;;;;;;5056377;28;20082;-65
2022/03/10 15:13:16;;;;;;;7.32;4.28;;;;;;;;;;5054633;28;20059;-64
2022/03/10 15:16:02;;;;;;;8.68;4.40;;;;;;;;;;5056737;28;20047;-63
2022/03/10 15:18:48;;;;;;;6.47;4.05;;;;;;;;;;5053372;28;20043;-65
2022/03/10 15:21:33;;;;;;;10.38;4.43;;;;;;;;;;5056429;28;20047;-76
2022/03/10 15:24:18;;;;;;;9.85;4.45;;;;;;;;;;5031572;28;20493;-62
2022/03/10 15:27:04;;;;;;;8.23;5.13;;;;;;;;;;5051207;28;20064;-62
2022/03/10 15:29:50;;;;;;;8.82;4.95;;;;;;;;;;5054481;28;20032;-62
2022/03/10 15:32:35;;;;;;;10.20;4.80;;;;;;;;;;5053433;28;20032;-62
2022/03/10 15:35:21;;;;;;;8.55;5.47;;;;;;;;;;5057912;28;20471;-62
2022/03/10 15:38:06;;;;;;;8.45;5.47;;;;;;;;;;5054909;28;20043;-64
2022/03/10 15:40:51;;;;;;;7.82;5.00;;;;;;;;;;5062077;28;20200;-69
2022/03/10 15:43:41;;;;;;;10.43;5.53;;;;;;;;;;5055505;28;20111;-69
2022/03/10 15:46:26;;;;;;;8.82;5.55;;;;;;;;;;5051528;28;20313;-70
2022/03/10 15:49:13;;;;;;;8.77;5.28;;;;;;;;;;5054072;28;20331;-70
2022/03/10 15:51:58;;;;;;;9.88;5.10;;;;;;;;;;5036309;28;20033;-70
2022/03/10 15:54:44;;;;;;;10.18;5.53;;;;;;;;;;5046691;28;20041;-70
2022/03/10 15:57:29;;;;;;;11.90;6.40;;;;;;;;;;5055120;28;20398;-70
2022/03/10 16:00:16;;;;;;;10.52;5.63;;;;;;;;;;5053018;28;20037;-71
2022/03/10 16:03:01;;;;;;;8.27;4.90;;;;;;;;;;5057810;28;20086;-69
2022/03/10 16:05:46;;;;;;;7.97;4.85;;;;;;;;;;5048406;28;20108;-70
2022/03/10 16:08:32;;;;;;;10.18;5.10;;;;;;;;;;5055172;28;20480;-70
2022/03/10 16:11:18;;;;;;;8.65;5.57;;;;;;;;;;5056385;28;20025;-70
2022/03/10 16:14:03;;;;;;;9.20;5.20;;;;;;;;;;5048146;28;20036;-70
2022/03/10 16:16:48;;;;;;;9.32;5.13;;;;;;;;;;5048622;28;20047;-75
2022/03/10 16:19:33;;;;;;;8.65;5.30;;;;;;;;;;5054797;28;20033;-62
2022/03/10 16:22:19;;;;;;;13.55;5.53;;;;;;;;;;5051554;28;20032;-61
2022/03/10 16:25:05;;;;;;;10.45;5.07;;;;;;;;;;5041169;28;20021;-62